createdAt,value
2023-02-23T00:00:32.308Z,-7.56
2023-02-23T00:03:04.687Z,-7.57
2023-02-23T00:05:36.217Z,-7.59
2023-02-23T00:08:05.615Z,-7.61
2023-02-23T00:10:34.721Z,-7.61
2023-02-23T00:13:05.241Z,-7.60
2023-02-23T00:15:39.180Z,-7.58
2023-02-23T00:18:09.589Z,-7.58
2023-02-23T00:20:44.451Z,-7.60
2023-02-23T00:23:12.977Z,-7.64
2023-02-23T00:25:45.928Z,-7.67
2023-02-23T00:28:15.521Z,-7.70
2023-02-23T00:30:46.939Z,-7.72
2023-02-23T00:33:17.122Z,-7.74
2023-02-23T00:35:45.951Z,-7.76
2023-02-23T00:38:16.060Z,-7.77
2023-02-23T00:40:46.262Z,-7.78
2023-02-23T00:43:15.519Z,-7.80
2023-02-23T00:45:44.064Z,-7.81
2023-02-23T00:48:12.618Z,-7.84
2023-02-23T00:50:42.123Z,-7.86
2023-02-23T00:53:11.668Z,-7.88
2023-02-23T00:55:41.615Z,-7.90
2023-02-23T00:58:14.340Z,-7.91
2023-02-23T01:00:43.827Z,-7.92
2023-02-23T01:03:12.370Z,-7.93
2023-02-23T01:05:41.853Z,-7.95
2023-02-23T01:08:11.222Z,-7.98
2023-02-23T01:10:42.015Z,-8.00
2023-02-23T01:13:13.494Z,-8.01
2023-02-23T01:15:44.772Z,-8.01
2023-02-23T01:18:16.440Z,-8.02
2023-02-23T01:20:45.500Z,-8.02
2023-02-23T01:23:15.018Z,-8.03
2023-02-23T01:25:44.909Z,-8.03
2023-02-23T01:28:13.740Z,-8.04
2023-02-23T01:30:43.164Z,-8.05
2023-02-23T01:33:13.957Z,-8.06
2023-02-23T01:35:43.953Z,-8.06
2023-02-23T01:38:16.007Z,-8.06
2023-02-23T01:40:44.781Z,-8.07
2023-02-23T01:43:21.564Z,-8.09
2023-02-23T01:45:50.258Z,-8.12
2023-02-23T01:48:22.969Z,-8.14
2023-02-23T01:50:53.027Z,-8.18
2023-02-23T01:53:21.869Z,-8.22
2023-02-23T01:55:51.336Z,-8.26
2023-02-23T01:58:29.688Z,-8.29
2023-02-23T02:01:02.052Z,-8.33
2023-02-23T02:03:39.867Z,-8.37
2023-02-23T02:06:14.209Z,-8.40
2023-02-23T02:08:46.817Z,-8.45
2023-02-23T02:11:31.076Z,-8.47
2023-02-23T02:14:02.821Z,-8.49
2023-02-23T02:17:06.577Z,-8.51
2023-02-23T02:20:06.487Z,-8.52
2023-02-23T02:23:16.788Z,-8.53
2023-02-23T02:26:29.642Z,-8.54
2023-02-23T02:29:28.942Z,-8.56
2023-02-23T02:32:24.427Z,-8.58
2023-02-23T02:35:15.250Z,-8.61
2023-02-23T02:38:07.497Z,-8.64
2023-02-23T02:40:59.333Z,-8.66
2023-02-23T02:43:40.984Z,-8.69
2023-02-23T02:46:18.028Z,-8.71
2023-02-23T02:49:01.792Z,-8.73
2023-02-23T02:51:36.819Z,-8.74
2023-02-23T02:54:26.853Z,-8.76
2023-02-23T02:56:57.895Z,-8.79
2023-02-23T02:59:46.336Z,-8.81
2023-02-23T03:02:38.554Z,-8.84
2023-02-23T03:05:36.511Z,-8.86
2023-02-23T03:08:42.308Z,-8.88
2023-02-23T03:11:31.017Z,-8.89
2023-02-23T03:14:30.458Z,-8.90
2023-02-23T03:17:43.589Z,-8.92
2023-02-23T03:20:53.817Z,-8.94
2023-02-23T03:23:48.222Z,-8.95
2023-02-23T03:26:42.936Z,-8.96
2023-02-23T03:29:41.239Z,-8.98
2023-02-23T03:32:44.843Z,-9.01
2023-02-23T03:35:38.029Z,-9.04
2023-02-23T03:38:35.160Z,-9.06
2023-02-23T03:41:23.169Z,-9.08
2023-02-23T03:44:22.708Z,-9.10
2023-02-23T03:47:10.032Z,-9.12
2023-02-23T03:49:57.449Z,-9.14
2023-02-23T03:52:55.496Z,-9.14
2023-02-23T03:55:45.874Z,-9.15
2023-02-23T03:58:36.270Z,-9.15
2023-02-23T04:01:24.440Z,-9.16
2023-02-23T04:04:11.663Z,-9.17
2023-02-23T04:07:01.314Z,-9.19
2023-02-23T04:09:49.453Z,-9.21
2023-02-23T04:12:41.306Z,-9.25
2023-02-23T04:15:24.336Z,-9.28
2023-02-23T04:17:53.107Z,-9.29
2023-02-23T04:20:21.323Z,-9.32
2023-02-23T04:22:51.891Z,-9.33
2023-02-23T04:25:22.981Z,-9.33
2023-02-23T04:27:51.265Z,-9.34
2023-02-23T04:30:20.794Z,-9.34
2023-02-23T04:32:51.961Z,-9.33
2023-02-23T04:35:20.683Z,-9.33
2023-02-23T04:37:49.059Z,-9.33
2023-02-23T04:40:18.306Z,-9.33
2023-02-23T04:42:47.042Z,-9.30
2023-02-23T04:45:16.001Z,-9.28
2023-02-23T04:47:45.079Z,-9.26
2023-02-23T04:50:13.765Z,-9.24
2023-02-23T04:52:43.081Z,-9.21
2023-02-23T04:55:20.154Z,-9.22
2023-02-23T04:57:49.075Z,-9.23
2023-02-23T05:00:18.489Z,-9.22
2023-02-23T05:02:49.555Z,-9.17
2023-02-23T05:05:19.042Z,-9.14
2023-02-23T05:07:49.018Z,-9.12
2023-02-23T05:10:19.472Z,-9.09
2023-02-23T05:12:48.319Z,-9.06
2023-02-23T05:15:16.891Z,-9.02
2023-02-23T05:17:45.612Z,-8.97
2023-02-23T05:20:19.077Z,-8.91
2023-02-23T05:22:47.872Z,-8.86
2023-02-23T05:25:16.915Z,-8.81
2023-02-23T05:27:45.893Z,-8.78
2023-02-23T05:30:14.672Z,-8.75
2023-02-23T05:32:43.438Z,-8.72
2023-02-23T05:35:13.174Z,-8.69
2023-02-23T05:37:41.697Z,-8.63
2023-02-23T05:40:11.269Z,-8.54
2023-02-23T05:42:41.282Z,-8.47
2023-02-23T05:45:09.923Z,-8.42
2023-02-23T05:47:39.079Z,-8.37
2023-02-23T05:50:11.596Z,-8.31
2023-02-23T05:52:41.831Z,-8.23
2023-02-23T05:55:12.704Z,-8.20
2023-02-23T05:57:42.934Z,-8.20
2023-02-23T06:00:13.663Z,-8.17
2023-02-23T06:02:42.797Z,-8.12
2023-02-23T06:05:13.167Z,-8.06
2023-02-23T06:07:41.819Z,-8.00
2023-02-23T06:10:12.527Z,-7.88
2023-02-23T06:12:43.263Z,-7.76
2023-02-23T06:15:11.573Z,-7.69
2023-02-23T06:17:42.111Z,-7.65
2023-02-23T06:20:11.642Z,-7.65
2023-02-23T06:22:40.383Z,-7.66
2023-02-23T06:25:13.018Z,-7.62
2023-02-23T06:27:42.511Z,-7.53
2023-02-23T06:30:12.320Z,-7.44
2023-02-23T06:32:40.804Z,-7.35
2023-02-23T06:35:11.816Z,-7.25
2023-02-23T06:37:46.005Z,-7.16
2023-02-23T06:40:14.497Z,-7.10
2023-02-23T06:42:44.633Z,-7.00
2023-02-23T06:45:14.134Z,-6.95
2023-02-23T06:47:43.621Z,-6.93
2023-02-23T06:50:14.889Z,-6.88
2023-02-23T06:52:44.030Z,-6.82
2023-02-23T06:55:13.412Z,-6.79
2023-02-23T06:57:42.838Z,-6.75
2023-02-23T07:00:15.310Z,-6.74
2023-02-23T07:02:45.147Z,-6.74
2023-02-23T07:05:13.726Z,-6.68
2023-02-23T07:07:45.615Z,-6.57
2023-02-23T07:10:14.865Z,-6.51
2023-02-23T07:12:43.332Z,-6.40
2023-02-23T07:15:12.205Z,-6.18
2023-02-23T07:17:40.873Z,-6.00
2023-02-23T07:20:13.211Z,-5.78
2023-02-23T07:22:42.586Z,-5.56
2023-02-23T07:25:11.457Z,-5.34
2023-02-23T07:27:42.540Z,-5.19
2023-02-23T07:30:11.867Z,-5.23
2023-02-23T07:32:42.136Z,-5.23
2023-02-23T07:35:10.970Z,-5.25
2023-02-23T07:37:39.568Z,-5.22
2023-02-23T07:40:09.456Z,-5.21
2023-02-23T07:42:38.326Z,-5.14
2023-02-23T07:45:08.544Z,-5.08
2023-02-23T07:47:38.245Z,-5.05
2023-02-23T07:50:14.043Z,-5.07
2023-02-23T07:52:42.996Z,-5.08
2023-02-23T07:55:11.851Z,-5.04
2023-02-23T07:57:41.088Z,-5.04
2023-02-23T08:00:10.962Z,-4.91
2023-02-23T08:02:43.439Z,-4.66
2023-02-23T08:05:12.278Z,-4.49
2023-02-23T08:07:42.461Z,-4.48
2023-02-23T08:10:12.067Z,-4.43
2023-02-23T08:12:42.641Z,-4.46
2023-02-23T08:15:11.188Z,-4.51
2023-02-23T08:17:40.948Z,-4.45
2023-02-23T08:20:11.485Z,-4.27
2023-02-23T08:22:49.401Z,-4.14
2023-02-23T08:25:18.642Z,-3.92
2023-02-23T08:27:52.225Z,-3.86
2023-02-23T08:30:21.842Z,-4.02
2023-02-23T08:32:53.687Z,-4.00
2023-02-23T08:35:23.197Z,-3.72
2023-02-23T08:37:51.932Z,-3.46
2023-02-23T08:40:21.900Z,-3.34
2023-02-23T08:42:52.457Z,-3.38
2023-02-23T08:45:21.157Z,-3.55
2023-02-23T08:47:50.004Z,-3.61
2023-02-23T08:50:18.986Z,-3.71
2023-02-23T08:52:48.340Z,-3.71
2023-02-23T08:55:21.984Z,-3.62
2023-02-23T08:57:50.779Z,-3.64
2023-02-23T09:00:20.450Z,-3.64
2023-02-23T09:02:50.089Z,-3.37
2023-02-23T09:05:19.038Z,-3.25
2023-02-23T09:07:49.382Z,-3.17
2023-02-23T09:10:20.276Z,-3.09
2023-02-23T09:12:51.631Z,-3.17
2023-02-23T09:15:21.906Z,-3.18
2023-02-23T09:17:50.658Z,-3.03
2023-02-23T09:20:20.986Z,-2.87
2023-02-23T09:22:49.976Z,-2.76
2023-02-23T09:25:23.571Z,-2.75
2023-02-23T09:27:53.520Z,-2.57
2023-02-23T09:30:22.610Z,-2.29
2023-02-23T09:32:53.010Z,-2.05
2023-02-23T09:35:23.130Z,-2.04
2023-02-23T09:37:55.889Z,-1.97
2023-02-23T09:40:29.482Z,-1.97
2023-02-23T09:43:01.240Z,-2.01
2023-02-23T09:45:40.193Z,-1.88
2023-02-23T09:48:09.676Z,-1.63
2023-02-23T09:50:39.190Z,-1.63
2023-02-23T09:53:24.157Z,-2.00
2023-02-23T09:55:54.149Z,-2.14
2023-02-23T09:58:27.746Z,-2.00
2023-02-23T10:01:15.292Z,-1.75
2023-02-23T10:04:18.991Z,-1.55
2023-02-23T10:07:07.621Z,-1.65
2023-02-23T10:10:00.328Z,-1.96
2023-02-23T10:12:47.878Z,-1.95
2023-02-23T10:15:28.340Z,-1.71
2023-02-23T10:18:04.340Z,-1.60
2023-02-23T10:20:45.721Z,-1.63
2023-02-23T10:23:17.389Z,-1.81
2023-02-23T10:25:47.796Z,-1.93
2023-02-23T10:28:22.300Z,-1.95
2023-02-23T10:30:51.605Z,-1.92
2023-02-23T10:33:23.912Z,-1.89
2023-02-23T10:36:07.372Z,-1.76
2023-02-23T10:38:40.190Z,-1.49
2023-02-23T10:41:09.400Z,-1.39
2023-02-23T10:43:39.720Z,-1.38
2023-02-23T10:46:08.848Z,-1.22
2023-02-23T10:48:43.406Z,-0.97
2023-02-23T10:51:40.499Z,-0.77
2023-02-23T10:54:58.394Z,-0.74
2023-02-23T10:57:30.510Z,-0.62
2023-02-23T11:00:00.562Z,-0.45
2023-02-23T11:02:33.764Z,-0.34
2023-02-23T11:05:03.455Z,-0.20
2023-02-23T11:07:33.971Z,-0.15
2023-02-23T11:10:26.239Z,-0.36
2023-02-23T11:12:57.373Z,-0.44
2023-02-23T11:15:49.892Z,-0.46
2023-02-23T11:18:23.231Z,-0.36
2023-02-23T11:20:52.711Z,-0.20
2023-02-23T11:23:31.915Z,-0.02
2023-02-23T11:26:06.437Z,0.17
2023-02-23T11:28:37.130Z,0.16
2023-02-23T11:31:20.010Z,0.27
2023-02-23T11:33:49.068Z,0.37
2023-02-23T11:36:29.894Z,0.39
2023-02-23T11:39:06.586Z,0.38
2023-02-23T11:41:35.543Z,0.12
2023-02-23T11:44:06.228Z,-0.10
2023-02-23T11:46:37.364Z,-0.11
2023-02-23T11:49:07.434Z,-0.04
2023-02-23T11:51:38.689Z,-0.10
2023-02-23T11:54:10.486Z,-0.23
2023-02-23T11:56:39.069Z,-0.39
2023-02-23T11:59:08.611Z,-0.22
2023-02-23T12:01:45.757Z,-0.03
2023-02-23T12:04:31.663Z,0.09
2023-02-23T12:07:19.478Z,0.31
2023-02-23T12:09:49.796Z,0.33
2023-02-23T12:12:20.794Z,0.16
2023-02-23T12:15:02.956Z,0.13
2023-02-23T12:17:36.906Z,0.34
2023-02-23T12:20:18.329Z,0.48
2023-02-23T12:22:49.766Z,0.54
2023-02-23T12:25:28.389Z,0.61
2023-02-23T12:28:20.833Z,0.46
2023-02-23T12:31:12.388Z,0.51
2023-02-23T12:33:49.101Z,0.75
2023-02-23T12:36:21.392Z,0.90
2023-02-23T12:39:00.905Z,1.13
2023-02-23T12:41:56.212Z,1.30
2023-02-23T12:44:30.719Z,1.44
2023-02-23T12:47:03.778Z,1.40
2023-02-23T12:49:44.790Z,1.37
2023-02-23T12:52:17.290Z,1.46
2023-02-23T12:54:47.215Z,1.51
2023-02-23T12:57:40.217Z,1.49
2023-02-23T13:00:31.282Z,1.44
2023-02-23T13:03:37.860Z,1.44
2023-02-23T13:06:30.871Z,1.49
2023-02-23T13:09:11.951Z,1.32
2023-02-23T13:11:54.031Z,1.01
2023-02-23T13:14:35.429Z,0.64
2023-02-23T13:17:10.113Z,0.46
2023-02-23T13:19:45.102Z,0.36
2023-02-23T13:22:40.943Z,0.26
2023-02-23T13:25:24.845Z,0.46
2023-02-23T13:27:56.802Z,0.77
2023-02-23T13:30:25.707Z,0.95
2023-02-23T13:32:54.593Z,1.14
2023-02-23T13:35:23.367Z,1.26
2023-02-23T13:38:14.518Z,1.25
2023-02-23T13:41:00.009Z,1.40
2023-02-23T13:43:33.967Z,1.51
2023-02-23T13:46:25.529Z,1.54
2023-02-23T13:49:02.063Z,1.51
2023-02-23T13:51:49.998Z,1.47
2023-02-23T13:54:20.011Z,1.54
2023-02-23T13:56:49.616Z,1.57
2023-02-23T13:59:35.037Z,1.59
2023-02-23T14:02:31.045Z,1.54
2023-02-23T14:05:26.884Z,1.55
2023-02-23T14:08:05.451Z,1.51
2023-02-23T14:10:38.820Z,1.62
2023-02-23T14:13:13.850Z,1.67
2023-02-23T14:16:09.577Z,1.72
2023-02-23T14:19:05.935Z,1.86
2023-02-23T14:21:46.813Z,1.95
2023-02-23T14:24:19.674Z,1.96
2023-02-23T14:27:04.946Z,1.87
2023-02-23T14:29:42.125Z,1.69
2023-02-23T14:32:10.919Z,1.66
2023-02-23T14:34:45.560Z,1.51
2023-02-23T14:37:18.480Z,1.09
2023-02-23T14:39:49.715Z,0.68
2023-02-23T14:42:26.387Z,0.30
2023-02-23T14:44:56.138Z,-0.05
2023-02-23T14:47:27.122Z,-0.36
2023-02-23T14:49:59.868Z,-0.68
2023-02-23T14:52:40.896Z,-1.03
2023-02-23T14:55:12.430Z,-1.35
2023-02-23T14:57:43.708Z,-1.69
2023-02-23T15:00:25.309Z,-2.01
2023-02-23T15:03:01.271Z,-2.27
2023-02-23T15:05:32.379Z,-2.46
2023-02-23T15:08:03.857Z,-2.61
2023-02-23T15:10:35.829Z,-2.74
2023-02-23T15:13:12.146Z,-2.88
2023-02-23T15:15:45.658Z,-2.99
2023-02-23T15:18:39.408Z,-3.07
2023-02-23T15:21:26.500Z,-3.21
2023-02-23T15:24:13.201Z,-3.37
2023-02-23T15:26:43.892Z,-3.49
2023-02-23T15:29:18.322Z,-3.56
2023-02-23T15:31:53.060Z,-3.62
2023-02-23T15:34:26.792Z,-3.70
2023-02-23T15:37:01.498Z,-3.76
2023-02-23T15:39:48.068Z,-3.83
2023-02-23T15:42:20.032Z,-3.91
2023-02-23T15:45:00.908Z,-3.99
2023-02-23T15:47:36.500Z,-4.08
2023-02-23T15:50:18.117Z,-4.16
2023-02-23T15:52:50.816Z,-4.24
2023-02-23T15:55:32.222Z,-4.29
2023-02-23T15:58:22.465Z,-4.33
2023-02-23T16:01:13.330Z,-4.39
2023-02-23T16:03:55.480Z,-4.46
2023-02-23T16:06:34.434Z,-4.51
2023-02-23T16:09:24.481Z,-4.56
2023-02-23T16:12:05.564Z,-4.63
2023-02-23T16:14:54.109Z,-4.70
2023-02-23T16:17:30.603Z,-4.78
2023-02-23T16:20:23.614Z,-4.85
2023-02-23T16:22:55.164Z,-4.91
2023-02-23T16:25:26.101Z,-4.96
2023-02-23T16:28:04.035Z,-5.00
2023-02-23T16:30:45.058Z,-5.03
2023-02-23T16:33:26.128Z,-5.06
2023-02-23T16:36:13.255Z,-5.09
2023-02-23T16:38:46.493Z,-5.14
2023-02-23T16:41:20.230Z,-5.19
2023-02-23T16:43:49.992Z,-5.25
2023-02-23T16:46:19.658Z,-5.32
2023-02-23T16:48:49.078Z,-5.36
2023-02-23T16:51:20.464Z,-5.40
2023-02-23T16:53:51.377Z,-5.44
2023-02-23T16:56:22.034Z,-5.49
2023-02-23T16:58:55.852Z,-5.55
2023-02-23T17:01:26.497Z,-5.60
2023-02-23T17:03:54.787Z,-5.65
2023-02-23T17:06:24.011Z,-5.68
2023-02-23T17:08:58.245Z,-5.69
2023-02-23T17:11:27.653Z,-5.69
2023-02-23T17:13:56.822Z,-5.68
2023-02-23T17:16:25.872Z,-5.67
2023-02-23T17:18:59.880Z,-5.67
2023-02-23T17:21:34.132Z,-5.71
2023-02-23T17:24:04.027Z,-5.78
2023-02-23T17:26:33.526Z,-5.84
2023-02-23T17:29:02.300Z,-5.90
2023-02-23T17:31:32.382Z,-5.94
2023-02-23T17:34:01.186Z,-5.99
2023-02-23T17:36:30.189Z,-6.04
2023-02-23T17:39:03.504Z,-6.11
2023-02-23T17:41:34.709Z,-6.14
2023-02-23T17:44:06.280Z,-6.16
2023-02-23T17:46:36.332Z,-6.18
2023-02-23T17:49:05.023Z,-6.21
2023-02-23T17:51:36.102Z,-6.27
2023-02-23T17:54:05.000Z,-6.33
2023-02-23T17:56:34.871Z,-6.38
2023-02-23T17:59:04.479Z,-6.41
2023-02-23T18:01:34.764Z,-6.46
2023-02-23T18:04:04.296Z,-6.52
2023-02-23T18:06:37.290Z,-6.58
2023-02-23T18:09:06.683Z,-6.63
2023-02-23T18:11:36.253Z,-6.68
2023-02-23T18:14:05.026Z,-6.72
2023-02-23T18:16:35.523Z,-6.75
2023-02-23T18:19:06.917Z,-6.75
2023-02-23T18:21:41.043Z,-6.76
2023-02-23T18:24:10.237Z,-6.77
2023-02-23T18:26:39.921Z,-6.78
2023-02-23T18:29:09.218Z,-6.77
2023-02-23T18:31:39.530Z,-6.76
2023-02-23T18:34:10.156Z,-6.77
2023-02-23T18:36:39.122Z,-6.79
2023-02-23T18:39:09.001Z,-6.82
2023-02-23T18:41:37.859Z,-6.88
2023-02-23T18:44:08.808Z,-6.92
2023-02-23T18:46:38.031Z,-6.94
2023-02-23T18:49:07.487Z,-6.96
2023-02-23T18:51:36.685Z,-7.00
2023-02-23T18:54:11.227Z,-7.02
2023-02-23T18:56:40.806Z,-7.03
2023-02-23T18:59:10.492Z,-7.04
2023-02-23T19:01:39.602Z,-7.06
2023-02-23T19:04:09.088Z,-7.07
2023-02-23T19:06:39.542Z,-7.11
2023-02-23T19:09:14.750Z,-7.16
2023-02-23T19:11:45.106Z,-7.22
2023-02-23T19:14:18.651Z,-7.27
2023-02-23T19:16:47.444Z,-7.32
2023-02-23T19:19:18.725Z,-7.38
2023-02-23T19:21:53.814Z,-7.44
2023-02-23T19:24:22.526Z,-7.49
2023-02-23T19:26:51.353Z,-7.54
2023-02-23T19:29:20.253Z,-7.62
2023-02-23T19:31:49.906Z,-7.69
2023-02-23T19:34:19.345Z,-7.74
2023-02-23T19:36:48.295Z,-7.78
2023-02-23T19:39:20.464Z,-7.83
2023-02-23T19:41:49.710Z,-7.84
2023-02-23T19:44:18.459Z,-7.84
2023-02-23T19:46:47.599Z,-7.85
2023-02-23T19:49:16.802Z,-7.83
2023-02-23T19:51:45.443Z,-7.79
2023-02-23T19:54:14.091Z,-7.77
2023-02-23T19:56:43.637Z,-7.76
2023-02-23T19:59:12.953Z,-7.72
2023-02-23T20:01:43.715Z,-7.68
2023-02-23T20:04:12.901Z,-7.66
2023-02-23T20:06:47.404Z,-7.64
2023-02-23T20:09:16.778Z,-7.64
2023-02-23T20:11:49.891Z,-7.65
2023-02-23T20:14:18.867Z,-7.65
2023-02-23T20:16:49.089Z,-7.63
2023-02-23T20:19:19.855Z,-7.62
2023-02-23T20:21:50.194Z,-7.60
2023-02-23T20:24:25.766Z,-7.59
2023-02-23T20:26:57.047Z,-7.58
2023-02-23T20:29:28.441Z,-7.61
2023-02-23T20:32:00.068Z,-7.63
2023-02-23T20:34:29.501Z,-7.64
2023-02-23T20:36:58.044Z,-7.67
2023-02-23T20:39:27.498Z,-7.72
2023-02-23T20:41:57.850Z,-7.77
2023-02-23T20:44:28.463Z,-7.82
2023-02-23T20:46:58.209Z,-7.84
2023-02-23T20:49:28.008Z,-7.86
2023-02-23T20:51:58.244Z,-7.85
2023-02-23T20:54:27.892Z,-7.85
2023-02-23T20:57:07.662Z,-7.83
2023-02-23T20:59:37.518Z,-7.82
2023-02-23T21:02:06.727Z,-7.83
2023-02-23T21:04:38.650Z,-7.85
2023-02-23T21:07:07.413Z,-7.86
2023-02-23T21:09:42.605Z,-7.87
2023-02-23T21:12:11.325Z,-7.89
2023-02-23T21:14:40.029Z,-7.91
2023-02-23T21:17:09.844Z,-7.94
2023-02-23T21:19:39.179Z,-7.97
2023-02-23T21:22:08.130Z,-8.00
2023-02-23T21:24:41.214Z,-8.00
2023-02-23T21:27:13.924Z,-8.02
2023-02-23T21:29:43.091Z,-8.05
2023-02-23T21:32:14.066Z,-8.08
2023-02-23T21:34:43.893Z,-8.11
2023-02-23T21:37:12.982Z,-8.14
2023-02-23T21:39:42.120Z,-8.19
2023-02-23T21:42:12.464Z,-8.22
2023-02-23T21:44:44.769Z,-8.22
2023-02-23T21:47:14.987Z,-8.20
2023-02-23T21:49:49.486Z,-8.17
2023-02-23T21:52:18.703Z,-8.13
2023-02-23T21:54:51.742Z,-8.11
2023-02-23T21:57:22.994Z,-8.12
2023-02-23T21:59:51.683Z,-8.13
2023-02-23T22:02:20.386Z,-8.17
2023-02-23T22:04:51.133Z,-8.19
2023-02-23T22:07:19.194Z,-8.20
2023-02-23T22:09:48.921Z,-8.21
2023-02-23T22:12:17.657Z,-8.21
2023-02-23T22:14:55.710Z,-8.20
2023-02-23T22:17:24.105Z,-8.20
2023-02-23T22:19:54.815Z,-8.21
2023-02-23T22:22:23.689Z,-8.23
2023-02-23T22:24:51.783Z,-8.24
2023-02-23T22:27:20.259Z,-8.23
2023-02-23T22:29:49.275Z,-8.23
2023-02-23T22:32:18.147Z,-8.21
2023-02-23T22:34:47.265Z,-8.20
2023-02-23T22:37:16.789Z,-8.21
2023-02-23T22:39:45.396Z,-8.23
2023-02-23T22:42:14.441Z,-8.24
2023-02-23T22:44:44.313Z,-8.24
2023-02-23T22:47:13.845Z,-8.24
2023-02-23T22:49:42.948Z,-8.25
2023-02-23T22:52:11.439Z,-8.25
2023-02-23T22:54:40.266Z,-8.25
2023-02-23T22:57:09.267Z,-8.22
2023-02-23T22:59:38.034Z,-8.21
2023-02-23T23:02:07.078Z,-8.21
2023-02-23T23:04:36.829Z,-8.21
2023-02-23T23:07:06.415Z,-8.22
2023-02-23T23:09:39.646Z,-8.22
2023-02-23T23:12:08.895Z,-8.21
2023-02-23T23:14:41.995Z,-8.18
2023-02-23T23:17:12.310Z,-8.16
2023-02-23T23:19:41.427Z,-8.15
2023-02-23T23:22:13.864Z,-8.16
2023-02-23T23:24:46.397Z,-8.19
2023-02-23T23:27:15.383Z,-8.20
2023-02-23T23:29:46.675Z,-8.22
2023-02-23T23:32:17.790Z,-8.23
2023-02-23T23:34:48.345Z,-8.22
2023-02-23T23:37:17.752Z,-8.22
2023-02-23T23:39:46.340Z,-8.23
2023-02-23T23:42:15.811Z,-8.22
2023-02-23T23:44:45.442Z,-8.20
2023-02-23T23:47:15.356Z,-8.19
2023-02-23T23:49:44.149Z,-8.19
2023-02-23T23:52:18.015Z,-8.20
2023-02-23T23:54:47.378Z,-8.21
2023-02-23T23:57:15.807Z,-8.20
2023-02-23T23:59:46.468Z,-8.19
